Flight Track Log - Related Links

Times and Time Zones

All times are in EDT time to prevent confusion due to time zone crossing. See the RPA4937 flight status page for this flight to view local times or setup timezone preferences in your user account.

Time Position Orientation Groundspeed Altitude Reporting Facility
EDT Latitude Longitude Course Direction KTS MPH feet Rate Location/Type
Wed 05:37:27 AM 39.1333 -76.6333 49° Northeast 198 228 2,800  Level Potomac TRACON
Wed 05:38:27 AM 39.1500 -76.5667 72° East 211 243 5,900 2,900 Climbing Potomac TRACON
Wed 05:39:27 AM 39.1833 -76.5000 57° Northeast 217 250 8,600 2,450 Climbing Potomac TRACON
Wed 05:40:00 AM 39.1901 -76.1632 46° Northeast  Level FlightAware Approximate
Wed 05:40:27 AM 39.2333 -76.4333 46° Northeast 239 275 10,800  Level Potomac TRACON
Wed 05:41:00 AM 39.2677 -76.0765 46° Northeast  Level FlightAware Approximate
Wed 05:41:27 AM 39.2667 -76.3500 63° Northeast 303 349 11,000  Level Potomac TRACON
Wed 05:42:00 AM 39.3397 -75.9821 49° Northeast  Level FlightAware Approximate
Wed 05:42:21 AM 39.3167 -76.2667 52° Northeast 323 372 11,800  Level Potomac TRACON
Wed 05:43:21 AM 39.3667 -76.1667 57° Northeast 333 383 12,000 98 Climbing Potomac TRACON
Wed 05:45:24 AM 39.4833 -75.9667 53° Northeast 322 371 12,100 33 Climbing Philadelphia TRACON
Wed 05:46:24 AM 39.5333 -75.8833 52° Northeast 299 344 12,100  Level Philadelphia TRACON
Wed 05:47:24 AM 39.5667 -75.7833 67° East 293 337 12,100  Level Philadelphia TRACON
Wed 05:48:24 AM 39.6167 -75.7000 52° Northeast 293 337 12,100 -500 Level Philadelphia TRACON
Wed 05:49:24 AM 39.6667 -75.6000 57° Northeast 318 366 11,100 -476 Descending Philadelphia TRACON
Wed 05:50:30 AM 39.7167 -75.5000 57° Northeast 314 361 11,100  Level Philadelphia TRACON
Wed 05:51:30 AM 39.7667 -75.4167 52° Northeast 310 357 11,100 -50 Level Philadelphia TRACON
Wed 05:52:30 AM 39.8000 -75.3167 67° East 312 359 11,000 -455 Descending Philadelphia TRACON
Wed 05:53:42 AM 39.8667 -75.2000 53° Northeast 297 342 10,100 -409 Descending Philadelphia TRACON
Wed 05:54:42 AM 39.9000 -75.1167 62° Northeast 289 333 10,100 -350 Level Philadelphia TRACON
Wed 05:55:42 AM 39.9500 -75.0333 52° Northeast 288 331 9,400 -950 Descending Philadelphia TRACON
Wed 05:56:42 AM 39.9833 -74.9500 62° Northeast 267 307 8,200 -1,078 Descending Philadelphia TRACON
Wed 05:57:50 AM 40.0333 -74.8500 57° Northeast 264 304 7,100 -590 Descending New York TRACON
Wed 05:58:44 AM 40.0667 -74.7833 57° Northeast 249 287 7,000 -53 Descending New York TRACON
Wed 05:59:44 AM 40.1000 -74.7000 62° Northeast 255 293 7,000  Level New York TRACON
Wed 06:00:32 AM 40.1167 -74.6333 72° East 262 302 7,000  Level New York TRACON
Wed 06:01:39 AM 40.1833 -74.5667 37° Northeast 266 306 7,000 -331 Level New York TRACON
Wed 06:02:39 AM 40.2333 -74.5167 37° Northeast 260 299 6,300 -500 Descending New York TRACON
Wed 06:03:39 AM 40.3000 -74.4667 30° Northeast 226 260 6,000 -150 Descending New York TRACON
Wed 06:04:39 AM 40.3500 -74.4167 37° Northeast 227 261 6,000 -350 Level New York TRACON
Wed 06:05:39 AM 40.4000 -74.3833 27° Northeast 219 252 5,300 -1,105 Descending New York TRACON
Wed 06:06:33 AM 40.4500 -74.3333 37° Northeast 221 254 3,900 -1,222 Descending New York TRACON
Wed 06:07:27 AM 40.4833 -74.3000 37° Northeast 199 229 3,100 -500 Descending New York TRACON
Wed 06:08:21 AM 40.5333 -74.2833 14° North 178 205 3,000 -333 Descending New York TRACON
Wed 06:09:15 AM 40.5667 -74.2500 37° Northeast 181 208 2,500 -737 Descending New York TRACON
Wed 06:10:15 AM 40.6167 -74.2167 27° Northeast 138 159 1,600 -744 Descending New York TRACON
Wed 06:11:16 AM 40.6333 -74.2000 37° Northeast 118 136 1,000 -590 Descending New York TRACON

Login

Don't have an account? Register now (free) for customized features, flight alerts, and more!